Spring Valley, CA

4:30 PM PST on December 25, 2014 (GMT -0800)
Conrad/Estrella | Change Station
CLOSE
Current Station
Personal Weather Station
Location: Spring Valley, CA
Elevation: 564 ft
Nearby Weather Stations

Elev 564 ft 32.75 °N, 116.99 °W | Updated 5 minutes ago

Clear
Clear
62.1 °F
Feels Like 62.1 °F
N
3.7
Wind Variable Wind from West

Today
High -- | Low -- °F
--% Chance of Precip.
Yesterday
High -- | Low -- °F
Precip. -- in
6:48 AM 4:48 PM
Waxing Crescent, 20% visible
Pressure 29.80 in
Visibility 10.0 miles
Clouds Clear
Dew Point 39 °F
Humidity 43%
Rainfall 0.00 in
Snow Depth Not available.
UV 0 out of 12
Pollen 6.00 out of 12
Air Quality Not available.
Flu Activity Not available.
METAR KMYF 252353Z 28007KT 10SM CLR 17/02 A2980 RMK AO2 SLP090 60000 T01720017 10194 20156 56004

More Conditions Fewer Conditions

Pressure 29.80 in
Visibility 10.0 miles
Clouds Clear
Dew Point 39 °F
Humidity 43%
Rainfall 0.00 in
Snow Depth Not available.
UV 0 out of 12
Pollen 6.00 out of 12
Air Quality Not available.
Flu Activity Not available.
METAR KMYF 252353Z 28007KT 10SM CLR 17/02 A2980 RMK AO2 SLP090 60000 T01720017 10194 20156 56004

More Conditions Fewer Conditions

10-Day Weather Forecast

Almanac

Astronomy

Dec. 25, 2014 Rise Set
Actual Time
Civil Twilight
Nautical Twilight
Astronomical Twilight
Moon
Length of Visible Light
Length of Day
Tomorrow will be .
, % of the Moon is Illuminated

Today's Extremes

State Highs State Lows

Community

WunderPhotos

Upload Photos

1,780,479 photos uploaded!

WunderBlogs® & News

Nearby

Air Quality

  Air Quality AQ Index Pollutant
Not available.

Snow Depth

Station Depth Elevation

Earthquake Activity

City Distance Mag. Time & Date
Minimum magnitude displayed is 2.5.

Coastal Water Temperatures

Place Temperature

Nearby Weather Stations